This is the latest recevied weather packets stored in our database for station/object OE-11213. If no packets are shown the sender has not sent any weather packets the latest 10 day(s).
| Time | Temp. | Humidity | Pressure | Rain* | Wind** | Luminosity | Snow |
|---|---|---|---|---|---|---|---|
| 1787730102 | 21.11° C | 70% | 1017.8 hPa | 0 mm | - | 486 W/m² | - |
| 1787729729 | 20.56° C | 72% | 1017.9 hPa | 0 mm | - | 363 W/m² | - |
| 1787729129 | 20.56° C | 72% | 1017.8 hPa | 0 mm | - | 413 W/m² | - |
| 1787728301 | 19.44° C | 75% | 1017.9 hPa | 0 mm | - | 413 W/m² | - |
| 1787727929 | 19.44° C | 76% | 1018.1 hPa | 0 mm | - | 377 W/m² | - |
| 1787727329 | 19.44° C | 76% | 1018 hPa | 0 mm | - | 348 W/m² | - |
| 1787726740 | 19.44° C | 79% | 1018.1 hPa | 0 mm | - | 312 W/m² | - |
| 1787726129 | 18.89° C | 81% | 1018 hPa | 0 mm | - | 283 W/m² | - |
| 1787725530 | 18.33° C | 82% | 1018.2 hPa | 0 mm | - | 254 W/m² | - |
| 1787724702 | 18.33° C | 83% | 1018.2 hPa | 0 mm | - | 225 W/m² | - |
| 1787724330 | 18.33° C | 83% | 1018.1 hPa | 0 mm | - | 196 W/m² | - |
| 1787723729 | 17.78° C | 85% | 1018.2 hPa | 0 mm | - | 167 W/m² | - |
| 1787722902 | 17.22° C | 87% | 1018.4 hPa | 0 mm | - | 138 W/m² | - |
| 1787722530 | 17.22° C | 89% | 1018.4 hPa | 0 mm | - | 116 W/m² | - |
| 1787721930 | 16.67° C | 93% | 1018.2 hPa | 0 mm | - | 94 W/m² | - |
| 1787721102 | 16.11° C | 95% | 1018.2 hPa | 0 mm | - | 65 W/m² | - |
| 1787720730 | 16.11° C | 96% | 1018.2 hPa | 0 mm | - | 22 W/m² | - |
| 1787720130 | 16.11° C | 95% | 1018.1 hPa | 0 mm | - | 15 W/m² | - |
| 1787719303 | 16.11° C | 94% | 1018 hPa | 0 mm | - | 7 W/m² | - |
| 1787718930 | 16.11° C | 94% | 1017.9 hPa | 0 mm | - | 0 W/m² | - |
| 1787718329 | 16.11° C | 94% | 1017.8 hPa | 0 mm | - | 0 W/m² | - |
| 1787717502 | 16.67° C | 94% | 1017.9 hPa | 0 mm | - | 0 W/m² | - |
| 1787717130 | 16.67° C | 93% | 1017.8 hPa | 0 mm | - | 0 W/m² | - |
| 1787716529 | 16.67° C | 92% | 1017.7 hPa | 0 mm | - | 0 W/m² | - |
| 1787715930 | 16.67° C | 93% | 1017.4 hPa | 0 mm | - | 0 W/m² | - |
* Rain latest hour (hover to see other rain measurements)
** Current wind speed in m/s (hover to see current wind gust speed)